Terminal Aerodrome Forecast
Issued by NWS

Home | Current Version | Previous Version | Graphics & Text | Print | Product List | Glossary On
Versions: 1 2 3 4 5 6 7 8 9 10 11 12 13 14 15 16 17 18 19 20
000
FTUS43 KGRB 241910 AAA
TAFRHI
TAF AMD
KRHI 241910Z 2419/2518 28011KT P6SM FEW029 OVC050
      TEMPO 2419/2422 5SM -SHRA
     FM242200 30004KT P6SM -SHRA SCT018 BKN030
     FM250700 29003KT P6SM BKN018
     FM251000 30004KT P6SM BKN009
     FM251300 30004KT P6SM -SHRA BKN016
     FM251600 30005KT P6SM -SHRA OVC021=

USA.gov is the U.S. government's official web portal to all federal, state and local government web resources and services.